Carl Watts 10000m row

10,000m

Meters

41:58.0

Time

2:05.9

Pace

606

Calories

145

Heart Rate

Average Watts175
Calories Per Hour903
Stroke Rate16
Stroke Count662
Drag Factor132

August 26, 2021 18:15:00

Workout
Indoor Rower

Workout Type
Fixed Distance

Weight Class
Hwt

Verified
Yes

Ranked
No

Entered
ErgData Android

ErgData Android PM5 V168 T 15C RH 60% 15.8spm HR 145 average.

Splits

Time Meters Pace Watts Cal/Hr S/M
41:58.0 10,000m 2:05.9 175 903 16 145
1:02.4 250m 2:04.8 180 919 18 89
1:03.7 500m 2:07.4 169 882 15 77
1:03.4 750m 2:06.8 172 890 16 80
1:03.4 1,000m 2:06.8 172 890 15 133
1:02.8 1,250m 2:05.6 177 907 15 141
1:02.7 1,500m 2:05.4 177 910 16 143
1:02.6 1,750m 2:05.2 178 913 15 143
1:02.7 2,000m 2:05.4 177 910 15 146
1:02.4 2,250m 2:04.8 180 919 16 146
1:02.7 2,500m 2:05.4 177 910 15 149
1:02.1 2,750m 2:04.2 183 928 15 152
1:02.2 3,000m 2:04.4 182 925 15 153
1:02.1 3,250m 2:04.2 183 928 15 150
1:02.0 3,500m 2:04.0 184 931 15 152
1:02.2 3,750m 2:04.4 182 925 16 153
1:02.5 4,000m 2:05.0 179 916 15 154
1:02.4 4,250m 2:04.8 180 919 15 154
1:02.4 4,500m 2:04.8 180 919 16 153
1:01.9 4,750m 2:03.8 184 934 16 158
1:02.1 5,000m 2:04.2 183 928 16 157
1:02.1 5,250m 2:04.2 183 928 16 156
1:03.4 5,500m 2:06.8 172 890 15 151
1:03.2 5,750m 2:06.4 173 896 16 151
1:03.6 6,000m 2:07.2 170 885 15 154
1:03.0 6,250m 2:06.0 175 902 16 153
1:02.8 6,500m 2:05.6 177 907 16 153
1:02.3 6,750m 2:04.6 181 922 15 156
1:02.2 7,000m 2:04.4 182 925 16 154
1:02.4 7,250m 2:04.8 180 919 16 156
1:03.8 7,500m 2:07.6 168 879 15 152
1:02.8 7,750m 2:05.6 177 907 16 155
1:04.2 8,000m 2:08.4 165 869 16 153
1:04.3 8,250m 2:08.6 165 866 15 151
1:03.0 8,500m 2:06.0 175 902 16 153
1:02.9 8,750m 2:05.8 176 905 15 153
1:04.4 9,000m 2:08.8 164 863 15 152
1:04.2 9,250m 2:08.4 165 869 16 151
1:04.2 9,500m 2:08.4 165 869 15 151
1:04.1 9,750m 2:08.2 166 871 16 149
1:04.4 10,000m 2:08.8 164 863 16 149

Click and drag on the graph to zoom in on a section.

Workout Graph

Loading data.